Time;durP1;ratioP1;P1;durP2;ratioP2;P2;SDS_P1;SDS_P2;PMS_P1;PMS_P2;Temp;Humidity;BMP_temperature;BMP_pressure;BME280_temperature;BME280_humidity;BME280_pressure;Samples;Min_cycle;Max_cycle;Signal;HPM_P1;HPM_P2
2021/11/13 00:00:30;;;;;;;47.45;36.72;;;;;;;;;;4983630;28;20553;-45
2021/11/13 00:02:57;;;;;;;42.60;32.47;;;;;;;;;;4982878;28;20058;-44
2021/11/13 00:05:24;;;;;;;35.55;31.95;;;;;;;;;;4990378;28;20558;-46
2021/11/13 00:07:51;;;;;;;38.30;31.17;;;;;;;;;;4979264;28;20530;-44
2021/11/13 00:10:19;;;;;;;32.88;29.60;;;;;;;;;;4981188;28;20402;-44
2021/11/13 00:12:46;;;;;;;28.52;26.27;;;;;;;;;;4987703;28;20054;-44
2021/11/13 00:15:18;;;;;;;26.95;24.95;;;;;;;;;;4985811;28;20097;-45
2021/11/13 00:17:45;;;;;;;27.38;24.50;;;;;;;;;;4975373;28;20072;-45
2021/11/13 00:20:12;;;;;;;28.20;25.20;;;;;;;;;;4985970;28;20042;-44
2021/11/13 00:22:38;;;;;;;41.50;34.88;;;;;;;;;;4983115;28;20038;-44
2021/11/13 00:25:06;;;;;;;35.05;31.67;;;;;;;;;;4984413;28;20410;-44
2021/11/13 00:27:32;;;;;;;38.40;34.30;;;;;;;;;;4980876;28;20035;-43
2021/11/13 00:29:59;;;;;;;31.67;28.33;;;;;;;;;;4973067;28;20375;-43
2021/11/13 00:32:26;;;;;;;32.17;29.40;;;;;;;;;;4987705;28;20035;-43
2021/11/13 00:34:52;;;;;;;28.42;26.13;;;;;;;;;;4986704;28;20092;-44
2021/11/13 00:37:19;;;;;;;36.83;28.20;;;;;;;;;;4979143;28;20075;-43
2021/11/13 00:39:46;;;;;;;34.08;30.58;;;;;;;;;;4983694;28;20054;-43
2021/11/13 00:42:13;;;;;;;33.05;30.05;;;;;;;;;;4975671;28;20046;-43
2021/11/13 00:44:40;;;;;;;37.45;33.92;;;;;;;;;;4987577;28;20034;-44
2021/11/13 00:47:07;;;;;;;39.03;35.03;;;;;;;;;;4983383;28;20034;-44
2021/11/13 00:49:34;;;;;;;33.63;30.92;;;;;;;;;;4987704;28;20085;-45
2021/11/13 00:52:01;;;;;;;30.58;27.85;;;;;;;;;;4985363;28;20093;-44
2021/11/13 00:54:30;;;;;;;33.45;30.45;;;;;;;;;;4979522;28;20042;-43
2021/11/13 00:56:57;;;;;;;32.55;29.60;;;;;;;;;;4984537;28;20606;-44
2021/11/13 00:59:23;;;;;;;38.42;34.95;;;;;;;;;;4979070;28;20054;-45
2021/11/13 01:01:50;;;;;;;37.08;33.22;;;;;;;;;;4983788;28;20126;-45
2021/11/13 01:04:17;;;;;;;121.63;31.80;;;;;;;;;;4987090;28;20046;-45
2021/11/13 01:06:44;;;;;;;82.72;29.65;;;;;;;;;;4987053;28;20070;-43
2021/11/13 01:09:11;;;;;;;71.97;27.83;;;;;;;;;;4990886;28;20101;-43
2021/11/13 01:11:37;;;;;;;88.32;27.15;;;;;;;;;;4981139;28;20038;-44
2021/11/13 01:14:04;;;;;;;95.45;27.98;;;;;;;;;;4992021;28;20093;-44
2021/11/13 01:16:31;;;;;;;90.32;29.08;;;;;;;;;;4988332;28;20063;-44
2021/11/13 01:18:57;;;;;;;87.75;29.58;;;;;;;;;;4988944;28;20047;-45
2021/11/13 01:21:24;;;;;;;45.33;27.73;;;;;;;;;;4986865;28;20066;-43
2021/11/13 01:23:51;;;;;;;31.98;27.33;;;;;;;;;;4987884;28;20643;-44
2021/11/13 01:26:18;;;;;;;78.45;29.30;;;;;;;;;;4979943;28;20113;-44
2021/11/13 01:28:45;;;;;;;164.65;35.13;;;;;;;;;;4988102;28;20474;-44
2021/11/13 01:31:14;;;;;;;34.28;31.33;;;;;;;;;;4979909;28;20057;-43
2021/11/13 01:33:43;;;;;;;94.75;33.38;;;;;;;;;;4984404;28;20046;-44
2021/11/13 01:36:09;;;;;;;31.95;29.42;;;;;;;;;;4984889;28;20634;-43
2021/11/13 01:38:37;;;;;;;31.10;28.73;;;;;;;;;;4990530;28;20038;-43
2021/11/13 01:41:04;;;;;;;109.70;30.30;;;;;;;;;;4985341;28;20487;-44
2021/11/13 01:43:35;;;;;;;32.72;29.67;;;;;;;;;;4989482;28;20120;-43
2021/11/13 01:46:03;;;;;;;36.70;29.70;;;;;;;;;;4990351;28;20049;-43
2021/11/13 01:48:30;;;;;;;40.28;29.25;;;;;;;;;;4988374;28;20047;-43
2021/11/13 01:50:57;;;;;;;156.60;27.15;;;;;;;;;;4991382;28;20049;-43
2021/11/13 01:53:23;;;;;;;30.40;27.65;;;;;;;;;;4991875;28;20109;-43
2021/11/13 01:55:50;;;;;;;32.92;22.65;;;;;;;;;;4990492;28;20073;-44
2021/11/13 01:58:17;;;;;;;24.98;23.58;;;;;;;;;;4976894;28;20109;-43
2021/11/13 02:00:49;;;;;;;21.85;20.85;;;;;;;;;;4985207;28;20538;-43
2021/11/13 02:03:16;;;;;;;22.90;21.67;;;;;;;;;;4977798;28;20121;-43
2021/11/13 02:05:43;;;;;;;104.20;22.95;;;;;;;;;;4989960;28;20042;-44
2021/11/13 02:08:09;;;;;;;46.42;27.33;;;;;;;;;;4988175;28;20046;-43
2021/11/13 02:10:36;;;;;;;57.72;27.25;;;;;;;;;;4991452;28;20112;-44
2021/11/13 02:13:03;;;;;;;48.17;27.08;;;;;;;;;;4988872;28;20043;-43
2021/11/13 02:15:30;;;;;;;66.60;25.38;;;;;;;;;;4977612;28;20077;-43
2021/11/13 02:17:58;;;;;;;26.60;23.90;;;;;;;;;;4988421;28;20074;-44
2021/11/13 02:20:30;;;;;;;67.65;25.35;;;;;;;;;;4983055;28;20039;-43
2021/11/13 02:22:59;;;;;;;44.72;27.35;;;;;;;;;;4976679;28;20045;-43
2021/11/13 02:25:27;;;;;;;43.08;24.90;;;;;;;;;;4990682;28;20042;-43
2021/11/13 02:27:53;;;;;;;30.52;27.98;;;;;;;;;;4989688;28;20051;-43
2021/11/13 02:30:20;;;;;;;31.98;29.40;;;;;;;;;;4990279;28;20121;-44
2021/11/13 02:32:47;;;;;;;68.72;29.90;;;;;;;;;;4988570;28;20042;-44
2021/11/13 02:35:15;;;;;;;30.77;27.95;;;;;;;;;;4989007;28;20554;-44
2021/11/13 02:37:42;;;;;;;67.35;30.42;;;;;;;;;;4983551;28;20483;-44
2021/11/13 02:40:09;;;;;;;29.67;27.33;;;;;;;;;;4979311;28;20126;-43
2021/11/13 02:42:36;;;;;;;64.75;29.65;;;;;;;;;;4991059;28;20494;-44
2021/11/13 02:45:04;;;;;;;27.08;25.17;;;;;;;;;;4987935;28;20565;-44
2021/11/13 02:47:32;;;;;;;30.92;28.13;;;;;;;;;;4980019;28;20504;-43
2021/11/13 02:49:58;;;;;;;29.27;27.08;;;;;;;;;;4989650;28;20117;-43
2021/11/13 02:52:25;;;;;;;50.20;28.55;;;;;;;;;;4981298;28;20042;-44
2021/11/13 02:54:52;;;;;;;30.63;28.25;;;;;;;;;;4991091;28;20426;-44
2021/11/13 02:57:19;;;;;;;31.52;29.27;;;;;;;;;;4988122;28;20112;-44
2021/11/13 02:59:47;;;;;;;39.63;29.42;;;;;;;;;;4989275;28;20081;-44
2021/11/13 03:02:13;;;;;;;71.25;30.90;;;;;;;;;;4982198;28;20105;-43
2021/11/13 03:04:40;;;;;;;43.28;31.55;;;;;;;;;;4977966;28;20690;-44
2021/11/13 03:07:08;;;;;;;60.45;30.88;;;;;;;;;;4974813;28;20045;-43
2021/11/13 03:09:35;;;;;;;33.08;29.65;;;;;;;;;;4987475;28;20664;-44
2021/11/13 03:12:02;;;;;;;30.60;27.52;;;;;;;;;;4987495;28;20446;-43
2021/11/13 03:14:29;;;;;;;32.85;29.73;;;;;;;;;;4990524;28;20062;-44
2021/11/13 03:17:00;;;;;;;30.92;28.10;;;;;;;;;;4988177;28;20077;-43
2021/11/13 03:19:27;;;;;;;29.88;27.25;;;;;;;;;;5004354;28;20050;-44
2021/11/13 03:21:53;;;;;;;28.40;26.40;;;;;;;;;;4987990;28;20109;-43
2021/11/13 03:24:22;;;;;;;44.45;25.08;;;;;;;;;;4988458;28;20046;-43
2021/11/13 03:26:49;;;;;;;28.25;25.75;;;;;;;;;;4989166;28;20528;-42
2021/11/13 03:29:18;;;;;;;111.35;30.13;;;;;;;;;;4987023;28;20043;-43
2021/11/13 03:31:45;;;;;;;55.40;29.42;;;;;;;;;;4972708;28;20031;-45
2021/11/13 03:34:12;;;;;;;94.10;30.95;;;;;;;;;;4986350;28;20081;-44
2021/11/13 03:36:39;;;;;;;82.70;30.88;;;;;;;;;;4978124;28;20061;-43
2021/11/13 03:39:06;;;;;;;74.43;27.70;;;;;;;;;;4990292;28;20101;-43
2021/11/13 03:41:34;;;;;;;91.95;31.77;;;;;;;;;;4987780;28;20042;-44
2021/11/13 03:44:01;;;;;;;34.80;28.02;;;;;;;;;;4986286;28;20057;-44
2021/11/13 03:46:27;;;;;;;28.42;26.80;;;;;;;;;;4984253;28;20545;-44
2021/11/13 03:48:54;;;;;;;31.08;29.05;;;;;;;;;;4979895;28;20054;-44
2021/11/13 03:51:21;;;;;;;29.38;25.83;;;;;;;;;;4985304;28;20038;-44
2021/11/13 03:53:48;;;;;;;31.67;24.88;;;;;;;;;;4987689;28;20080;-43
2021/11/13 03:56:15;;;;;;;27.52;25.50;;;;;;;;;;4984369;28;20364;-43
2021/11/13 03:58:42;;;;;;;41.97;27.27;;;;;;;;;;4988191;28;20062;-43
2021/11/13 04:01:08;;;;;;;120.85;28.40;;;;;;;;;;4986691;28;20356;-44
2021/11/13 04:03:35;;;;;;;28.58;26.15;;;;;;;;;;4971217;28;20667;-45
2021/11/13 04:06:02;;;;;;;23.70;22.52;;;;;;;;;;4984439;28;20034;-44
2021/11/13 04:08:28;;;;;;;40.22;19.55;;;;;;;;;;4974117;28;20067;-43
2021/11/13 04:10:55;;;;;;;25.77;23.42;;;;;;;;;;4988717;28;20062;-44
2021/11/13 04:13:22;;;;;;;26.02;24.83;;;;;;;;;;4987098;28;20378;-44
2021/11/13 04:15:48;;;;;;;154.05;30.25;;;;;;;;;;4979939;28;20437;-44
2021/11/13 04:18:15;;;;;;;219.98;33.20;;;;;;;;;;4987403;28;20655;-43
2021/11/13 04:20:42;;;;;;;212.43;34.25;;;;;;;;;;4987709;28;20093;-44
2021/11/13 04:23:08;;;;;;;103.97;28.80;;;;;;;;;;4988336;28;20085;-44
2021/11/13 04:25:35;;;;;;;29.08;27.17;;;;;;;;;;4982045;28;20049;-46
2021/11/13 04:28:02;;;;;;;98.28;28.10;;;;;;;;;;4975308;28;20047;-45
2021/11/13 04:30:28;;;;;;;28.77;26.15;;;;;;;;;;4985244;28;20027;-44
2021/11/13 04:32:55;;;;;;;260.38;34.95;;;;;;;;;;4978863;28;20070;-44
2021/11/13 04:35:24;;;;;;;158.68;31.60;;;;;;;;;;4989555;28;20047;-44
2021/11/13 04:37:55;;;;;;;288.23;36.80;;;;;;;;;;4984134;28;20069;-44
2021/11/13 04:40:23;;;;;;;200.90;31.17;;;;;;;;;;4989596;28;20066;-45
2021/11/13 04:42:50;;;;;;;186.80;30.80;;;;;;;;;;4982580;28;20063;-44
2021/11/13 04:45:17;;;;;;;301.92;37.40;;;;;;;;;;4990704;28;20457;-45
2021/11/13 04:47:44;;;;;;;347.02;38.67;;;;;;;;;;4980578;28;20562;-44
2021/11/13 04:50:13;;;;;;;438.23;39.33;;;;;;;;;;4989846;28;20478;-44
2021/11/13 04:52:40;;;;;;;345.85;38.88;;;;;;;;;;4984531;28;20039;-43
2021/11/13 04:55:07;;;;;;;314.05;33.60;;;;;;;;;;4993145;28;20117;-44
2021/11/13 04:57:34;;;;;;;270.08;36.35;;;;;;;;;;4989376;28;20047;-45
2021/11/13 05:00:00;;;;;;;205.02;30.88;;;;;;;;;;4992053;28;20073;-44
2021/11/13 05:02:27;;;;;;;271.25;35.33;;;;;;;;;;4986683;28;20045;-45
2021/11/13 05:04:54;;;;;;;289.30;33.33;;;;;;;;;;4979120;28;20562;-44
2021/11/13 05:07:22;;;;;;;155.25;27.27;;;;;;;;;;4986925;28;20038;-43
2021/11/13 05:09:49;;;;;;;160.88;29.58;;;;;;;;;;4984875;28;20042;-43
2021/11/13 05:12:16;;;;;;;161.10;25.45;;;;;;;;;;4991688;28;20534;-43
2021/11/13 05:14:43;;;;;;;24.52;23.38;;;;;;;;;;4989908;28;20042;-44
2021/11/13 05:17:10;;;;;;;49.03;25.13;;;;;;;;;;4988807;28;20049;-44
2021/11/13 05:19:37;;;;;;;57.92;23.58;;;;;;;;;;4991709;28;20049;-43
2021/11/13 05:22:04;;;;;;;23.58;22.25;;;;;;;;;;4989807;28;20125;-44
2021/11/13 05:24:31;;;;;;;28.23;22.90;;;;;;;;;;4990358;28;20085;-43
2021/11/13 05:26:57;;;;;;;47.60;22.65;;;;;;;;;;4987284;28;20491;-43
2021/11/13 05:29:24;;;;;;;23.77;22.05;;;;;;;;;;4984200;28;20038;-43
2021/11/13 05:31:51;;;;;;;43.92;21.70;;;;;;;;;;4986667;28;20038;-44
2021/11/13 05:34:18;;;;;;;23.73;22.73;;;;;;;;;;4989438;28;20104;-43
2021/11/13 05:36:46;;;;;;;23.33;21.55;;;;;;;;;;4987255;28;20053;-44
2021/11/13 05:39:14;;;;;;;25.10;21.50;;;;;;;;;;4985225;28;20038;-43
2021/11/13 05:41:42;;;;;;;53.83;21.30;;;;;;;;;;4984375;28;20039;-44
2021/11/13 05:44:08;;;;;;;84.18;22.77;;;;;;;;;;4987777;28;20572;-43
2021/11/13 05:46:35;;;;;;;84.55;24.20;;;;;;;;;;4986094;28;20066;-43
2021/11/13 05:49:02;;;;;;;89.47;24.05;;;;;;;;;;4990432;28;20043;-43
2021/11/13 05:51:29;;;;;;;93.95;26.02;;;;;;;;;;4990508;28;20654;-44
2021/11/13 05:53:55;;;;;;;35.75;23.88;;;;;;;;;;4990361;28;20453;-43
2021/11/13 05:56:22;;;;;;;115.13;27.27;;;;;;;;;;4986200;28;20077;-43
2021/11/13 05:58:56;;;;;;;123.25;26.23;;;;;;;;;;4985079;28;20048;-43
2021/11/13 06:01:23;;;;;;;24.88;23.00;;;;;;;;;;4978095;28;20784;-43
2021/11/13 06:03:50;;;;;;;24.08;23.10;;;;;;;;;;4991681;28;20398;-43
2021/11/13 06:06:16;;;;;;;125.47;25.27;;;;;;;;;;4988279;28;20146;-43
2021/11/13 06:08:43;;;;;;;107.10;23.30;;;;;;;;;;4990692;28;20050;-43
2021/11/13 06:11:10;;;;;;;51.40;24.23;;;;;;;;;;4989426;28;20039;-44
2021/11/13 06:13:37;;;;;;;24.15;22.13;;;;;;;;;;4985147;28;20053;-43
2021/11/13 06:16:03;;;;;;;25.08;23.42;;;;;;;;;;4989130;28;20050;-43
2021/11/13 06:18:32;;;;;;;27.80;22.75;;;;;;;;;;4983294;28;20045;-43
2021/11/13 06:20:59;;;;;;;69.50;25.48;;;;;;;;;;4989790;28;20122;-43
2021/11/13 06:23:25;;;;;;;96.75;24.55;;;;;;;;;;4989966;28;20089;-44
2021/11/13 06:25:52;;;;;;;25.27;22.80;;;;;;;;;;4989157;28;20042;-45
2021/11/13 06:28:19;;;;;;;47.47;21.30;;;;;;;;;;4987815;28;20039;-43
2021/11/13 06:30:45;;;;;;;153.23;28.02;;;;;;;;;;4988039;28;20034;-43
2021/11/13 06:33:12;;;;;;;110.07;26.02;;;;;;;;;;4988830;28;20092;-44
2021/11/13 06:35:39;;;;;;;24.63;21.08;;;;;;;;;;4990276;28;20453;-43
2021/11/13 06:38:05;;;;;;;39.70;22.55;;;;;;;;;;4986461;28;20550;-43
2021/11/13 06:40:32;;;;;;;22.88;21.75;;;;;;;;;;4983777;28;20422;-43
2021/11/13 06:42:59;;;;;;;29.23;23.00;;;;;;;;;;4987879;28;20410;-45
2021/11/13 06:45:25;;;;;;;43.63;23.23;;;;;;;;;;4983615;28;20097;-46
2021/11/13 06:47:52;;;;;;;77.78;23.85;;;;;;;;;;4987217;28;20050;-44
2021/11/13 06:50:19;;;;;;;36.60;24.00;;;;;;;;;;4988306;28;20122;-44
2021/11/13 06:52:46;;;;;;;26.63;24.55;;;;;;;;;;4990416;28;20035;-44
2021/11/13 06:55:12;;;;;;;54.65;24.25;;;;;;;;;;4985781;28;20042;-44
2021/11/13 06:57:40;;;;;;;26.48;24.05;;;;;;;;;;4988607;28;20478;-44
2021/11/13 07:00:08;;;;;;;24.55;23.48;;;;;;;;;;4987716;28;20042;-46
2021/11/13 07:02:35;;;;;;;25.67;23.48;;;;;;;;;;4982619;28;20049;-44
2021/11/13 07:05:03;;;;;;;52.92;25.65;;;;;;;;;;4976282;28;20364;-43
2021/11/13 07:07:33;;;;;;;73.90;26.08;;;;;;;;;;4985531;28;20026;-45
2021/11/13 07:10:04;;;;;;;119.20;28.80;;;;;;;;;;4978030;28;20084;-43
2021/11/13 07:12:30;;;;;;;246.52;34.97;;;;;;;;;;4990453;28;20471;-43
2021/11/13 07:14:57;;;;;;;131.25;31.50;;;;;;;;;;4987126;28;20096;-43
2021/11/13 07:17:24;;;;;;;59.42;28.63;;;;;;;;;;4989334;28;20081;-43
2021/11/13 07:19:51;;;;;;;293.77;35.58;;;;;;;;;;4987543;28;20042;-44
2021/11/13 07:22:18;;;;;;;219.25;31.98;;;;;;;;;;4985975;28;20092;-45
2021/11/13 07:24:44;;;;;;;84.53;27.23;;;;;;;;;;4988434;28;20454;-44
2021/11/13 07:27:12;;;;;;;28.40;26.58;;;;;;;;;;4983299;28;20034;-43
2021/11/13 07:29:57;;;;;;;26.90;24.83;;;;;;;;;;4983185;28;20030;-43
2021/11/13 07:32:24;;;;;;;24.95;23.17;;;;;;;;;;4985565;28;20560;-44
2021/11/13 07:34:51;;;;;;;329.23;38.38;;;;;;;;;;4988411;28;20046;-43
2021/11/13 07:37:18;;;;;;;166.55;29.40;;;;;;;;;;4976609;28;20639;-44
2021/11/13 07:39:45;;;;;;;334.27;35.00;;;;;;;;;;4983795;28;20046;-43
2021/11/13 07:42:11;;;;;;;286.85;32.67;;;;;;;;;;4988371;28;20478;-45
2021/11/13 07:44:38;;;;;;;226.48;33.85;;;;;;;;;;4988476;28;20050;-43
2021/11/13 07:47:05;;;;;;;330.92;44.08;;;;;;;;;;4986663;28;20057;-43
2021/11/13 07:49:32;;;;;;;118.38;26.30;;;;;;;;;;4989733;28;20042;-43
2021/11/13 07:51:59;;;;;;;78.90;29.58;;;;;;;;;;4986627;28;20096;-43
2021/11/13 07:54:25;;;;;;;43.65;23.58;;;;;;;;;;4979566;28;20060;-44
2021/11/13 07:56:52;;;;;;;251.55;33.15;;;;;;;;;;4987539;28;20097;-44
2021/11/13 07:59:19;;;;;;;187.38;27.42;;;;;;;;;;4984897;28;20466;-43
2021/11/13 08:01:45;;;;;;;165.00;28.05;;;;;;;;;;4988254;28;20052;-44
2021/11/13 08:04:12;;;;;;;122.18;23.83;;;;;;;;;;4986855;28;20046;-43
2021/11/13 08:06:39;;;;;;;286.63;30.25;;;;;;;;;;4984535;28;20073;-44
2021/11/13 08:09:05;;;;;;;303.95;28.35;;;;;;;;;;4980766;28;20054;-44
2021/11/13 08:11:32;;;;;;;206.25;29.88;;;;;;;;;;4982181;28;20069;-43
2021/11/13 08:13:59;;;;;;;278.67;31.45;;;;;;;;;;4987281;28;20035;-44
2021/11/13 08:16:25;;;;;;;173.77;25.08;;;;;;;;;;4992260;28;20061;-43
2021/11/13 08:18:52;;;;;;;120.13;26.25;;;;;;;;;;4981552;28;20520;-43
2021/11/13 08:21:21;;;;;;;138.57;25.02;;;;;;;;;;4979846;28;20035;-44
2021/11/13 08:23:47;;;;;;;24.40;23.15;;;;;;;;;;4987135;28;20107;-43
2021/11/13 08:26:14;;;;;;;44.75;26.08;;;;;;;;;;4978434;28;20046;-42
2021/11/13 08:28:41;;;;;;;23.90;22.70;;;;;;;;;;4993234;28;20038;-42
2021/11/13 08:31:08;;;;;;;23.95;22.13;;;;;;;;;;4987705;28;20089;-42
2021/11/13 08:33:34;;;;;;;22.77;21.90;;;;;;;;;;4988937;28;20035;-42
2021/11/13 08:36:01;;;;;;;25.92;24.65;;;;;;;;;;4989801;28;20086;-42
2021/11/13 08:38:28;;;;;;;24.13;22.92;;;;;;;;;;4989255;28;20046;-42
2021/11/13 08:40:56;;;;;;;26.02;24.67;;;;;;;;;;4989309;28;20046;-42
2021/11/13 08:43:23;;;;;;;23.13;22.23;;;;;;;;;;4990117;28;20073;-43
2021/11/13 08:45:51;;;;;;;23.15;21.92;;;;;;;;;;4989296;28;20102;-43
2021/11/13 08:48:18;;;;;;;22.58;21.52;;;;;;;;;;4988849;28;20039;-43
2021/11/13 08:50:45;;;;;;;23.00;21.63;;;;;;;;;;4991913;28;20031;-42
2021/11/13 08:53:12;;;;;;;22.98;22.08;;;;;;;;;;4992924;28;20042;-43
2021/11/13 08:55:39;;;;;;;22.25;21.42;;;;;;;;;;4990882;28;20046;-42
2021/11/13 08:58:07;;;;;;;20.23;19.30;;;;;;;;;;4993431;28;20053;-42
2021/11/13 09:00:41;;;;;;;21.52;20.80;;;;;;;;;;4987428;28;20038;-42
2021/11/13 09:03:07;;;;;;;;;;;;;;;;;;4988739;28;20045;-42
2021/11/13 09:05:34;;;;;;;20.90;20.08;;;;;;;;;;4991355;28;19925;-42
2021/11/13 09:08:01;;;;;;;21.35;20.08;;;;;;;;;;4989970;28;20545;-41
2021/11/13 09:10:30;;;;;;;19.92;19.17;;;;;;;;;;4983849;28;20129;-42
2021/11/13 09:12:58;;;;;;;21.90;20.90;;;;;;;;;;4985299;28;20384;-42
2021/11/13 09:15:26;;;;;;;22.98;21.48;;;;;;;;;;4984596;28;20453;-42
2021/11/13 09:17:53;;;;;;;38.78;35.08;;;;;;;;;;4991970;28;20046;-43
2021/11/13 09:20:21;;;;;;;62.97;49.88;;;;;;;;;;4985640;28;20042;-42
2021/11/13 09:22:48;;;;;;;94.95;68.47;;;;;;;;;;4991343;28;21352;-41
2021/11/13 09:25:15;;;;;;;83.57;63.15;;;;;;;;;;4982726;28;20042;-42
2021/11/13 09:27:44;;;;;;;64.20;50.28;;;;;;;;;;4990156;28;20038;-42
2021/11/13 09:30:13;;;;;;;43.38;38.85;;;;;;;;;;4988245;28;20042;-43
2021/11/13 09:32:43;;;;;;;37.90;34.03;;;;;;;;;;4988149;28;20034;-44
2021/11/13 09:35:13;;;;;;;29.23;27.08;;;;;;;;;;4989373;28;20081;-43
2021/11/13 09:37:40;;;;;;;28.38;26.13;;;;;;;;;;4987903;28;20034;-45
2021/11/13 09:40:07;;;;;;;23.95;22.65;;;;;;;;;;4986459;28;20046;-42
2021/11/13 09:42:34;;;;;;;23.35;22.08;;;;;;;;;;4988304;28;20050;-43
2021/11/13 09:45:01;;;;;;;20.45;19.65;;;;;;;;;;4988074;28;20081;-43
2021/11/13 09:47:28;;;;;;;20.83;19.92;;;;;;;;;;4996716;28;20037;-43
2021/11/13 09:49:54;;;;;;;21.55;20.63;;;;;;;;;;4987206;28;20109;-42
2021/11/13 09:52:21;;;;;;;21.08;20.27;;;;;;;;;;4987072;28;20046;-42
2021/11/13 09:54:48;;;;;;;20.98;20.08;;;;;;;;;;4989122;28;20046;-42
2021/11/13 09:57:14;;;;;;;18.67;18.08;;;;;;;;;;4985220;28;20074;-42
2021/11/13 09:59:41;;;;;;;17.50;16.58;;;;;;;;;;4987802;28;20042;-42
2021/11/13 10:02:08;;;;;;;16.88;16.08;;;;;;;;;;4988386;28;20418;-42
2021/11/13 10:04:34;;;;;;;16.25;15.35;;;;;;;;;;4988674;28;20042;-42
2021/11/13 10:07:01;;;;;;;8.07;7.78;;;;;;;;;;4986512;28;20038;-41
2021/11/13 10:09:28;;;;;;;11.05;10.13;;;;;;;;;;4984213;28;20530;-41
2021/11/13 10:11:55;;;;;;;9.43;8.45;;;;;;;;;;4988701;28;20073;-40
2021/11/13 10:14:36;;;;;;;9.00;8.40;;;;;;;;;;4947234;28;98182;-41
2021/11/13 10:26:30;;;;;;;6.57;2.20;;;15.00;99.90;;;;;;5052784;27;1297674;-60
2021/11/13 10:29:06;;;;;;;13.23;3.72;;;14.20;99.90;;;;;;5097543;28;20063;-59
2021/11/13 10:31:36;;;;;;;6.30;2.45;;;14.50;99.90;;;;;;5093788;27;61525;-70
2021/11/13 10:34:11;;;;;;;11.90;1.65;;;15.60;99.90;;;;;;5049761;27;20545;-68
2021/11/13 10:36:41;;;;;;;2.65;2.50;;;18.60;99.90;;;;;;4147647;27;20434;-71
2021/11/13 10:38:44;;;;;;;2.88;1.70;;;18.90;99.90;;;;;;4123755;28;20035;-71
2021/11/13 10:40:58;;;;;;;4.80;1.73;;;20.50;99.90;;;;;;4125305;28;20129;-71
2021/11/13 10:43:02;;;;;;;4.00;2.08;;;21.80;99.90;;;;;;4125573;28;20045;-70
2021/11/13 10:45:05;;;;;;;3.38;1.30;;;22.80;98.90;;;;;;4130179;28;20137;-71
2021/11/13 10:47:28;;;;;;;;;;;22.50;98.30;;;;;;4129762;28;135479;-72
2021/11/13 10:49:30;;;;;;;4.07;1.15;;;22.80;98.70;;;;;;4144655;28;20289;-71
2021/11/13 10:51:34;;;;;;;3.25;1.25;;;22.20;98.60;;;;;;4144381;28;20109;-70
2021/11/13 10:53:37;;;;;;;9.07;1.90;;;22.20;98.60;;;;;;4146576;28;20046;-69
2021/11/13 10:56:01;;;;;;;3.85;1.30;;;22.00;98.70;;;;;;4142099;28;20431;-70
2021/11/13 10:58:29;;;;;;;4.93;1.73;;;23.00;98.20;;;;;;4135720;28;20042;-69
2021/11/13 11:00:38;;;;;;;3.35;1.60;;;23.50;97.00;;;;;;4143600;28;20414;-68
2021/11/13 11:02:41;;;;;;;3.47;1.55;;;24.60;95.00;;;;;;4148376;28;20040;-68
2021/11/13 11:04:44;;;;;;;;;;;24.70;95.50;;;;;;4151894;28;20483;-68
2021/11/13 11:06:50;;;;;;;1.15;1.05;;;25.20;94.40;;;;;;4146730;28;19925;-68
2021/11/13 11:08:52;;;;;;;1.88;0.93;;;25.80;93.70;;;;;;4140068;28;20045;-68
2021/11/13 11:10:54;;;;;;;0.98;0.68;;;26.80;92.50;;;;;;4138330;28;20046;-68
2021/11/13 11:12:57;;;;;;;0.60;0.50;;;27.30;91.50;;;;;;4144210;28;20053;-69
2021/11/13 11:14:59;;;;;;;;;;;27.70;90.00;;;;;;4136233;28;20042;-68
2021/11/13 11:17:04;;;;;;;2.90;0.80;;;28.00;89.00;;;;;;4142788;28;19925;-68
2021/11/13 11:19:13;;;;;;;2.35;1.05;;;27.70;89.70;;;;;;4134496;28;20046;-66
2021/11/13 11:21:44;;;;;;;2.80;0.60;;;27.70;90.00;;;;;;4137206;28;20129;-66
2021/11/13 11:23:46;;;;;;;1.13;0.80;;;26.50;89.80;;;;;;4138660;28;20096;-65
2021/11/13 11:25:48;;;;;;;1.20;1.10;;;26.30;90.40;;;;;;4147608;28;20038;-66
2021/11/13 11:27:51;;;;;;;1.60;0.77;;;27.20;89.40;;;;;;4140025;28;20049;-66
2021/11/13 11:29:54;;;;;;;0.82;0.75;;;27.30;89.70;;;;;;4150766;28;20054;-66
2021/11/13 11:32:00;;;;;;;4.20;1.05;;;26.10;90.20;;;;;;4139322;28;20389;-65
2021/11/13 11:34:02;;;;;;;2.08;0.70;;;26.00;90.20;;;;;;4128086;28;20042;-65
2021/11/13 11:36:33;;;;;;;1.50;0.50;;;26.40;90.10;;;;;;4139495;28;20101;-66
2021/11/13 11:38:36;;;;;;;0.60;0.60;;;26.80;87.60;;;;;;4145266;28;20411;-66
2021/11/13 11:40:44;;;;;;;0.80;0.70;;;26.60;86.40;;;;;;4142866;28;20053;-65
2021/11/13 11:42:48;;;;;;;0.90;0.60;;;22.90;92.30;;;;;;4144750;28;20506;-65
2021/11/13 11:44:51;;;;;;;0.73;0.50;;;20.80;95.20;;;;;;4142545;28;20042;-65
2021/11/13 11:46:55;;;;;;;3.25;0.70;;;19.40;97.60;;;;;;4142734;28;20431;-66
2021/11/13 11:48:58;;;;;;;2.88;0.77;;;18.90;99.50;;;;;;4127804;28;20129;-65
2021/11/13 11:51:01;;;;;;;1.75;0.57;;;22.40;95.20;;;;;;4132388;28;20125;-65
2021/11/13 11:53:07;;;;;;;1.15;0.50;;;24.00;92.20;;;;;;4129717;28;20077;-65
2021/11/13 11:55:10;;;;;;;0.98;0.57;;;24.40;91.50;;;;;;4131501;28;20043;-65
2021/11/13 11:57:13;;;;;;;0.60;0.52;;;25.30;91.30;;;;;;4123837;28;20073;-66
2021/11/13 11:59:15;;;;;;;3.80;0.75;;;26.40;89.40;;;;;;4132016;28;20058;-65
2021/11/13 12:01:44;;;;;;;1.20;0.60;;;27.00;87.90;;;;;;4133363;28;20039;-64
2021/11/13 12:03:46;;;;;;;3.65;0.57;;;25.90;89.20;;;;;;4134090;28;20100;-66
2021/11/13 12:05:54;;;;;;;0.50;0.40;;;24.80;90.40;;;;;;4134079;28;20046;-65
2021/11/13 12:07:59;;;;;;;0.93;0.25;;;23.00;92.50;;;;;;4129768;28;20046;-66
2021/11/13 12:10:04;;;;;;;0.30;0.30;;;21.50;94.60;;;;;;4133175;28;20054;-66
2021/11/13 12:12:14;;;;;;;1.15;0.43;;;20.90;95.70;;;;;;4127513;28;20046;-66
2021/11/13 12:14:32;;;;;;;3.33;0.40;;;21.00;95.70;;;;;;4130825;28;20177;-66
2021/11/13 12:17:39;;;;;;;0.60;0.60;;;19.90;97.30;;;;;;4241838;27;20544;-51
2021/11/13 12:19:41;;;;;;;0.60;0.60;;;17.50;99.90;;;;;;4225409;28;20119;-49
2021/11/13 12:21:55;;;;;;;0.98;0.70;;;16.60;99.90;;;;;;4226643;28;20431;-52
2021/11/13 12:24:05;;;;;;;0.70;0.65;;;16.40;99.90;;;;;;4219239;28;20032;-51
2021/11/13 12:26:20;;;;;;;0.70;0.60;;;16.30;99.90;;;;;;4218551;28;20068;-51
2021/11/13 12:28:23;;;;;;;2.30;0.80;;;16.40;99.90;;;;;;4217812;28;20040;-51
2021/11/13 12:30:45;;;;;;;0.93;0.93;;;16.90;99.90;;;;;;4225005;28;20040;-49
2021/11/13 12:32:47;;;;;;;4.13;1.40;;;16.70;99.90;;;;;;4225231;28;20560;-51
2021/11/13 12:34:55;;;;;;;2.45;1.10;;;16.60;99.90;;;;;;4226231;28;20131;-52
2021/11/13 12:37:03;;;;;;;1.10;1.10;;;16.40;99.90;;;;;;4222599;28;20132;-50
2021/11/13 12:39:12;;;;;;;2.00;1.20;;;16.60;99.90;;;;;;4225880;28;20084;-51
2021/11/13 12:41:35;;;;;;;1.40;0.90;;;16.50;99.90;;;;;;4225470;28;20172;-50
2021/11/13 12:45:54;;;;;;;1.10;1.10;;;16.70;99.90;;;;;;4224624;28;19920;-51
2021/11/13 12:48:07;;;;;;;1.10;1.10;;;17.10;99.90;;;;;;4224236;28;20040;-50
2021/11/13 12:50:21;;;;;;;1.58;1.48;;;17.40;99.90;;;;;;4227697;28;20063;-51
2021/11/13 12:52:25;;;;;;;1.85;1.33;;;17.20;99.90;;;;;;4223249;28;20050;-51
2021/11/13 12:54:31;;;;;;;2.65;1.40;;;16.70;99.90;;;;;;4228224;28;20400;-51
2021/11/13 12:56:48;;;;;;;3.83;1.25;;;16.80;99.90;;;;;;4215905;28;20111;-51
2021/11/13 12:58:58;;;;;;;1.77;1.30;;;16.70;99.90;;;;;;4232467;28;20402;-52
2021/11/13 13:01:00;;;;;;;1.88;1.10;;;16.20;99.90;;;;;;4223685;28;20039;-51
2021/11/13 13:03:14;;;;;;;4.38;1.10;;;16.50;99.90;;;;;;4227203;28;20043;-50
2021/11/13 13:05:17;;;;;;;4.00;1.10;;;16.90;99.90;;;;;;4224126;28;20035;-52
2021/11/13 13:07:19;;;;;;;1.20;1.10;;;17.10;99.90;;;;;;4225259;28;20063;-51
2021/11/13 13:09:22;;;;;;;1.50;1.38;;;17.20;99.90;;;;;;4223855;28;20067;-50
2021/11/13 13:11:24;;;;;;;2.95;1.10;;;;;;;;;;4220939;28;20044;-48
2021/11/13 13:13:27;;;;;;;;;;;;;;;;;;4220960;28;20530;-51
2021/11/13 13:15:29;;;;;;;2.80;1.42;;;;;;;;;;4225116;28;20018;-51
2021/11/13 13:17:33;;;;;;;2.05;1.10;;;17.10;99.90;;;;;;4223563;28;20064;-50
2021/11/13 13:19:37;;;;;;;2.30;1.20;;;15.90;99.90;;;;;;4225130;28;20040;-52
2021/11/13 13:21:47;;;;;;;1.50;1.40;;;16.20;99.90;;;;;;4223923;28;20052;-51
2021/11/13 13:23:49;;;;;;;1.55;1.40;;;16.20;99.90;;;;;;4225344;28;20032;-52
2021/11/13 13:26:08;;;;;;;1.80;1.30;;;16.10;99.90;;;;;;4224557;28;20059;-49
2021/11/13 13:28:10;;;;;;;1.42;1.17;;;15.90;99.90;;;;;;4220894;27;20375;-50
2021/11/13 13:30:14;;;;;;;1.90;1.13;;;16.10;99.90;;;;;;4209770;28;20064;-51
2021/11/13 13:32:16;;;;;;;1.30;1.20;;;16.20;99.90;;;;;;4205407;28;20044;-50
2021/11/13 13:34:18;;;;;;;2.95;1.45;;;16.40;99.90;;;;;;4206242;28;20091;-51
2021/11/13 13:36:30;;;;;;;2.67;1.30;;;16.40;99.90;;;;;;4207361;28;20123;-50